createdAt,value
2023-04-17T00:00:33.915Z,48.03
2023-04-17T00:03:01.628Z,48.20
2023-04-17T00:05:28.658Z,48.05
2023-04-17T00:07:55.229Z,47.88
2023-04-17T00:10:21.800Z,48.03
2023-04-17T00:12:48.623Z,48.13
2023-04-17T00:15:15.290Z,47.61
2023-04-17T00:17:41.984Z,48.29
2023-04-17T00:20:12.418Z,47.79
2023-04-17T00:22:39.123Z,48.09
2023-04-17T00:25:06.311Z,48.16
2023-04-17T00:27:32.859Z,48.04
2023-04-17T00:29:59.409Z,48.18
2023-04-17T00:32:25.988Z,48.24
2023-04-17T00:34:55.560Z,47.83
2023-04-17T00:37:22.401Z,48.57
2023-04-17T00:39:48.936Z,48.32
2023-04-17T00:42:15.488Z,48.28
2023-04-17T00:44:42.042Z,48.11
2023-04-17T00:47:08.703Z,47.77
2023-04-17T00:49:36.058Z,48.44
2023-04-17T00:52:02.745Z,47.95
2023-04-17T00:54:29.861Z,48.10
2023-04-17T00:56:57.710Z,47.98
2023-04-17T00:59:26.579Z,47.87
2023-04-17T01:01:53.218Z,47.87
2023-04-17T01:04:19.929Z,48.29
2023-04-17T01:06:46.650Z,48.32
2023-04-17T01:09:14.002Z,47.77
2023-04-17T01:11:40.758Z,48.03
2023-04-17T01:14:07.375Z,48.21
2023-04-17T01:16:33.997Z,48.23
2023-04-17T01:19:00.892Z,48.39
2023-04-17T01:21:28.166Z,48.20
2023-04-17T01:23:55.394Z,48.25
2023-04-17T01:26:23.572Z,48.08
2023-04-17T01:28:57.293Z,48.38
2023-04-17T01:31:24.668Z,48.26
2023-04-17T01:33:51.924Z,47.86
2023-04-17T01:36:19.275Z,47.94
2023-04-17T01:38:45.800Z,48.04
2023-04-17T01:41:12.368Z,47.87
2023-04-17T01:43:44.211Z,47.94
2023-04-17T01:46:11.418Z,47.97
2023-04-17T01:48:38.311Z,48.29
2023-04-17T01:51:05.401Z,48.20
2023-04-17T01:53:32.546Z,48.29
2023-04-17T01:56:00.301Z,48.04
2023-04-17T01:58:27.397Z,48.30
2023-04-17T02:00:53.980Z,48.41
2023-04-17T02:03:20.726Z,48.44
2023-04-17T02:05:47.722Z,48.18
2023-04-17T02:08:14.929Z,48.22
2023-04-17T02:10:42.111Z,48.36
2023-04-17T02:13:09.810Z,48.24
2023-04-17T02:15:39.649Z,47.90
2023-04-17T02:18:06.584Z,48.08
2023-04-17T02:20:37.194Z,48.37
2023-04-17T02:23:05.696Z,48.04
2023-04-17T02:25:32.793Z,48.33
2023-04-17T02:27:59.578Z,47.91
2023-04-17T02:30:27.189Z,48.29
2023-04-17T02:32:54.841Z,48.21
2023-04-17T02:35:22.885Z,48.03
2023-04-17T02:37:49.442Z,48.03
2023-04-17T02:40:16.259Z,48.05
2023-04-17T02:42:43.021Z,48.25
2023-04-17T02:45:10.846Z,48.20
2023-04-17T02:47:37.966Z,48.28
2023-04-17T02:50:05.329Z,48.25
2023-04-17T02:52:34.109Z,47.96
2023-04-17T02:55:00.708Z,48.06
2023-04-17T02:57:27.316Z,47.95
2023-04-17T02:59:53.879Z,48.38
2023-04-17T03:02:22.012Z,47.96
2023-04-17T03:04:50.310Z,48.25
2023-04-17T03:07:18.740Z,48.27
2023-04-17T03:09:49.125Z,48.75
2023-04-17T03:12:16.459Z,48.12
2023-04-17T03:14:43.978Z,48.34
2023-04-17T03:17:11.934Z,47.99
2023-04-17T03:19:38.443Z,48.17
2023-04-17T03:22:05.800Z,47.41
2023-04-17T03:24:32.846Z,47.57
2023-04-17T03:27:00.763Z,47.71
2023-04-17T03:29:27.325Z,47.38
2023-04-17T03:31:53.924Z,47.48
2023-04-17T03:34:21.884Z,47.55
2023-04-17T03:36:48.805Z,47.03
2023-04-17T03:39:15.732Z,47.08
2023-04-17T03:41:42.288Z,47.45
2023-04-17T03:44:09.804Z,47.19
2023-04-17T03:46:36.324Z,47.07
2023-04-17T03:49:02.880Z,46.78
2023-04-17T03:51:29.499Z,47.04
2023-04-17T03:53:56.085Z,46.68
2023-04-17T03:56:22.717Z,46.79
2023-04-17T03:58:49.287Z,46.74
2023-04-17T04:01:15.942Z,47.15
2023-04-17T04:03:42.835Z,46.85
2023-04-17T04:06:09.715Z,47.51
2023-04-17T04:08:36.269Z,47.66
2023-04-17T04:11:03.369Z,47.54
2023-04-17T04:13:29.901Z,47.32
2023-04-17T04:15:56.489Z,47.91
2023-04-17T04:18:23.092Z,47.90
2023-04-17T04:20:49.628Z,48.01
2023-04-17T04:23:16.888Z,48.04
2023-04-17T04:25:43.565Z,48.22
2023-04-17T04:28:10.688Z,48.31
2023-04-17T04:30:38.758Z,47.56
2023-04-17T04:33:06.202Z,48.34
2023-04-17T04:35:32.834Z,48.45
2023-04-17T04:38:02.864Z,48.45
2023-04-17T04:40:30.802Z,48.55
2023-04-17T04:42:58.538Z,48.26
2023-04-17T04:45:25.165Z,48.19
2023-04-17T04:47:51.712Z,48.07
2023-04-17T04:50:18.246Z,47.98
2023-04-17T04:52:44.794Z,47.75
2023-04-17T04:55:12.521Z,47.64
2023-04-17T04:57:39.043Z,47.45
2023-04-17T05:00:06.545Z,47.30
2023-04-17T05:02:33.777Z,46.91
2023-04-17T05:05:00.712Z,46.57
2023-04-17T05:07:27.348Z,46.65
2023-04-17T05:09:53.838Z,46.43
2023-04-17T05:12:20.360Z,46.61
2023-04-17T05:14:47.905Z,46.81
2023-04-17T05:17:14.512Z,46.92
2023-04-17T05:19:41.694Z,46.39
2023-04-17T05:22:08.281Z,46.20
2023-04-17T05:24:34.862Z,46.43
2023-04-17T05:27:02.121Z,46.51
2023-04-17T05:29:28.815Z,46.70
2023-04-17T05:31:55.409Z,46.44
2023-04-17T05:34:22.168Z,46.57
2023-04-17T05:36:48.760Z,46.63
2023-04-17T05:39:15.356Z,46.72
2023-04-17T05:41:41.931Z,46.62
2023-04-17T05:44:08.497Z,46.62
2023-04-17T05:46:35.075Z,46.49
2023-04-17T05:49:01.709Z,46.45
2023-04-17T05:51:28.772Z,46.48
2023-04-17T05:53:55.365Z,46.64
2023-04-17T05:56:21.912Z,46.83
2023-04-17T05:58:48.481Z,46.71
2023-04-17T06:01:17.773Z,46.64
2023-04-17T06:03:44.414Z,46.37
2023-04-17T06:06:11.378Z,46.44
2023-04-17T06:08:37.986Z,46.58
2023-04-17T06:11:04.877Z,46.66
2023-04-17T06:13:31.636Z,46.59
2023-04-17T06:15:58.715Z,46.37
2023-04-17T06:18:25.341Z,46.40
2023-04-17T06:20:51.997Z,46.20
2023-04-17T06:23:18.562Z,46.45
2023-04-17T06:25:45.118Z,46.71
2023-04-17T06:28:11.668Z,46.38
2023-04-17T06:30:38.292Z,46.54
2023-04-17T06:33:04.972Z,46.57
2023-04-17T06:35:31.553Z,46.91
2023-04-17T06:37:58.183Z,46.74
2023-04-17T06:40:24.707Z,46.88
2023-04-17T06:42:51.196Z,46.80
2023-04-17T06:45:17.836Z,46.94
2023-04-17T06:47:46.468Z,47.55
2023-04-17T06:50:13.110Z,47.59
2023-04-17T06:52:39.706Z,47.78
2023-04-17T06:55:06.591Z,47.30
2023-04-17T06:57:34.114Z,47.54
2023-04-17T07:00:00.978Z,47.92
2023-04-17T07:02:27.645Z,48.08
2023-04-17T07:04:57.554Z,47.74
2023-04-17T07:07:25.155Z,47.60
2023-04-17T07:09:51.992Z,47.78
2023-04-17T07:12:18.594Z,47.96
2023-04-17T07:14:45.243Z,47.82
2023-04-17T07:17:11.830Z,48.16
2023-04-17T07:19:38.631Z,47.84
2023-04-17T07:22:05.676Z,48.19
2023-04-17T07:24:35.056Z,47.85
2023-04-17T07:27:03.419Z,47.99
2023-04-17T07:29:30.367Z,47.86
2023-04-17T07:31:56.964Z,47.83
2023-04-17T07:34:25.212Z,47.59
2023-04-17T07:36:54.781Z,47.46
2023-04-17T07:39:21.363Z,47.68
2023-04-17T07:41:49.399Z,47.82
2023-04-17T07:44:16.171Z,47.59
2023-04-17T07:46:42.812Z,47.73
2023-04-17T07:49:11.446Z,47.81
2023-04-17T07:51:41.300Z,47.84
2023-04-17T07:54:08.012Z,47.60
2023-04-17T07:56:34.625Z,47.64
2023-04-17T07:59:01.220Z,47.48
2023-04-17T08:01:27.980Z,47.49
2023-04-17T08:03:55.702Z,47.43
2023-04-17T08:06:22.430Z,47.60
2023-04-17T08:08:48.951Z,47.77
2023-04-17T08:11:15.577Z,47.22
2023-04-17T08:13:42.227Z,47.43
2023-04-17T08:16:09.281Z,47.28
2023-04-17T08:18:37.783Z,47.47
2023-04-17T08:21:04.747Z,47.70
2023-04-17T08:23:31.419Z,47.37
2023-04-17T08:25:58.307Z,47.47
2023-04-17T08:28:25.163Z,47.72
2023-04-17T08:30:51.994Z,47.48
2023-04-17T08:33:18.751Z,47.51
2023-04-17T08:35:45.645Z,47.47
2023-04-17T08:38:14.152Z,47.26
2023-04-17T08:40:43.112Z,47.26
2023-04-17T08:43:19.442Z,47.48
2023-04-17T08:45:55.393Z,47.50
2023-04-17T08:48:25.003Z,47.30
2023-04-17T08:50:53.517Z,47.26
2023-04-17T08:53:20.982Z,47.61
2023-04-17T08:55:48.231Z,47.44
2023-04-17T08:58:16.035Z,47.68
2023-04-17T09:00:44.521Z,47.42
2023-04-17T09:03:12.874Z,47.00
2023-04-17T09:05:48.486Z,46.95
2023-04-17T09:08:26.251Z,47.43
2023-04-17T09:10:54.507Z,47.21
2023-04-17T09:13:25.708Z,47.30
2023-04-17T09:16:21.459Z,47.32
2023-04-17T09:18:49.314Z,47.35
2023-04-17T09:21:20.903Z,47.25
2023-04-17T09:23:52.678Z,46.88
2023-04-17T09:26:33.133Z,46.83
2023-04-17T09:29:03.950Z,47.04
2023-04-17T09:31:32.336Z,46.89
2023-04-17T09:34:12.100Z,46.86
2023-04-17T09:36:41.638Z,46.82
2023-04-17T09:39:20.737Z,47.07
2023-04-17T09:41:47.665Z,47.05
2023-04-17T09:44:26.558Z,46.94
2023-04-17T09:46:53.459Z,46.70
2023-04-17T09:49:24.158Z,47.18
2023-04-17T09:51:52.427Z,46.18
2023-04-17T09:54:20.192Z,46.60
2023-04-17T09:56:49.664Z,46.70
2023-04-17T09:59:16.578Z,46.70
2023-04-17T10:01:43.909Z,46.93
2023-04-17T10:04:12.095Z,46.63
2023-04-17T10:06:38.996Z,46.81
2023-04-17T10:09:05.934Z,46.65
2023-04-17T10:11:37.052Z,46.03
2023-04-17T10:14:19.324Z,46.10
2023-04-17T10:16:47.254Z,46.69
2023-04-17T10:19:34.142Z,46.11
2023-04-17T10:22:15.704Z,45.79
2023-04-17T10:24:43.105Z,46.22
2023-04-17T10:27:24.767Z,45.95
2023-04-17T10:30:05.402Z,45.68
2023-04-17T10:32:34.195Z,45.65
2023-04-17T10:35:16.031Z,46.24
2023-04-17T10:37:48.625Z,45.64
2023-04-17T10:40:21.894Z,45.83
2023-04-17T10:43:23.338Z,46.03
2023-04-17T10:45:59.361Z,46.14
2023-04-17T10:48:38.349Z,46.24
2023-04-17T10:51:23.863Z,45.82
2023-04-17T10:53:51.962Z,45.88
2023-04-17T10:56:32.615Z,45.77
2023-04-17T10:59:01.527Z,45.15
2023-04-17T11:01:36.822Z,45.24
2023-04-17T11:04:06.963Z,45.34
2023-04-17T11:06:38.943Z,45.74
2023-04-17T11:09:10.920Z,45.26
2023-04-17T11:11:44.450Z,45.08
2023-04-17T11:14:22.621Z,45.56
2023-04-17T11:16:51.633Z,44.88
2023-04-17T11:19:27.323Z,45.04
2023-04-17T11:22:01.260Z,45.04
2023-04-17T11:24:29.929Z,44.73
2023-04-17T11:26:59.640Z,45.03
2023-04-17T11:29:27.120Z,44.66
2023-04-17T11:31:55.630Z,44.85
2023-04-17T11:34:22.522Z,45.17
2023-04-17T11:36:53.966Z,44.96
2023-04-17T11:39:21.761Z,44.63
2023-04-17T11:41:49.447Z,44.95
2023-04-17T11:44:18.402Z,44.75
2023-04-17T11:46:55.891Z,44.58
2023-04-17T11:49:30.049Z,45.09
2023-04-17T11:52:04.396Z,44.62
2023-04-17T11:54:39.004Z,44.70
2023-04-17T11:57:09.447Z,44.33
2023-04-17T11:59:37.995Z,44.35
2023-04-17T12:02:08.505Z,44.40
2023-04-17T12:04:37.109Z,44.83
2023-04-17T12:07:05.145Z,44.65
2023-04-17T12:09:33.503Z,44.89
2023-04-17T12:12:04.146Z,44.66
2023-04-17T12:14:31.303Z,44.49
2023-04-17T12:16:57.975Z,44.78
2023-04-17T12:19:26.703Z,44.48
2023-04-17T12:21:54.331Z,44.71
2023-04-17T12:24:22.876Z,44.71
2023-04-17T12:26:50.417Z,44.79
2023-04-17T12:29:17.801Z,44.66
2023-04-17T12:31:45.619Z,44.37
2023-04-17T12:34:12.485Z,44.74
2023-04-17T12:36:39.320Z,44.39
2023-04-17T12:39:05.822Z,44.17
2023-04-17T12:41:32.363Z,44.47
2023-04-17T12:44:01.736Z,44.17
2023-04-17T12:46:28.681Z,44.27
2023-04-17T12:49:04.068Z,44.07
2023-04-17T12:51:32.247Z,43.69
2023-04-17T12:53:58.754Z,43.89
2023-04-17T12:56:25.326Z,44.03
2023-04-17T12:58:51.873Z,43.97
2023-04-17T13:01:18.517Z,43.98
2023-04-17T13:03:45.407Z,43.76
2023-04-17T13:06:12.349Z,44.08
2023-04-17T13:08:39.063Z,44.20
2023-04-17T13:11:05.629Z,43.81
2023-04-17T13:13:32.151Z,44.33
2023-04-17T13:15:58.867Z,44.18
2023-04-17T13:18:26.376Z,44.15
2023-04-17T13:20:52.903Z,43.93
2023-04-17T13:23:19.485Z,43.84
2023-04-17T13:25:46.890Z,43.80
2023-04-17T13:28:13.783Z,44.31
2023-04-17T13:30:40.352Z,44.16
2023-04-17T13:33:07.179Z,44.37
2023-04-17T13:35:33.941Z,43.94
2023-04-17T13:38:02.894Z,43.83
2023-04-17T13:40:30.394Z,43.93
2023-04-17T13:42:56.941Z,43.81
2023-04-17T13:45:23.526Z,43.50
2023-04-17T13:47:50.161Z,43.74
2023-04-17T13:50:16.703Z,43.46
2023-04-17T13:52:43.241Z,43.62
2023-04-17T13:55:13.062Z,43.30
2023-04-17T13:57:39.595Z,43.82
2023-04-17T14:00:07.276Z,43.75
2023-04-17T14:02:33.961Z,43.16
2023-04-17T14:05:00.679Z,43.57
2023-04-17T14:07:27.547Z,43.78
2023-04-17T14:09:54.182Z,43.81
2023-04-17T14:12:21.674Z,43.73
2023-04-17T14:14:48.343Z,43.71
2023-04-17T14:17:14.920Z,44.11
2023-04-17T14:19:41.447Z,43.92
2023-04-17T14:22:08.067Z,44.01
2023-04-17T14:24:34.655Z,44.04
2023-04-17T14:27:02.074Z,43.85
2023-04-17T14:29:28.632Z,43.95
2023-04-17T14:31:55.380Z,44.28
2023-04-17T14:34:21.970Z,44.62
2023-04-17T14:36:48.765Z,44.36
2023-04-17T14:39:15.590Z,44.43
2023-04-17T14:41:42.285Z,44.16
2023-04-17T14:44:08.957Z,44.10
2023-04-17T14:46:35.851Z,44.45
2023-04-17T14:49:02.612Z,44.33
2023-04-17T14:51:30.704Z,44.31
2023-04-17T14:53:57.534Z,44.58
2023-04-17T14:56:24.321Z,44.59
2023-04-17T14:58:50.924Z,44.39
2023-04-17T15:01:17.460Z,44.61
2023-04-17T15:03:46.764Z,44.62
2023-04-17T15:06:14.141Z,44.24
2023-04-17T15:08:40.876Z,44.55
2023-04-17T15:11:07.446Z,44.53
2023-04-17T15:13:34.478Z,44.61
2023-04-17T15:16:01.167Z,44.76
2023-04-17T15:18:27.702Z,44.08
2023-04-17T15:20:54.421Z,44.83
2023-04-17T15:23:22.097Z,44.53
2023-04-17T15:25:48.962Z,44.30
2023-04-17T15:28:15.912Z,44.50
2023-04-17T15:30:42.675Z,44.40
2023-04-17T15:33:10.409Z,44.21
2023-04-17T15:35:37.553Z,44.46
2023-04-17T15:38:06.043Z,44.69
2023-04-17T15:40:32.754Z,44.98
2023-04-17T15:42:59.680Z,44.98
2023-04-17T15:45:27.266Z,44.68
2023-04-17T15:47:54.733Z,44.95
2023-04-17T15:50:21.708Z,44.48
2023-04-17T15:52:48.285Z,44.25
2023-04-17T15:55:15.291Z,44.44
2023-04-17T15:57:43.070Z,45.02
2023-04-17T16:00:10.560Z,44.83
2023-04-17T16:02:37.379Z,44.44
2023-04-17T16:05:04.229Z,44.70
2023-04-17T16:07:31.327Z,44.36
2023-04-17T16:09:58.157Z,44.26
2023-04-17T16:12:24.703Z,44.76
2023-04-17T16:14:51.309Z,44.51
2023-04-17T16:17:17.936Z,44.12
2023-04-17T16:19:44.640Z,44.32
2023-04-17T16:22:11.206Z,44.32
2023-04-17T16:24:37.750Z,44.24
2023-04-17T16:27:06.318Z,44.63
2023-04-17T16:29:32.982Z,44.49
2023-04-17T16:31:59.657Z,44.59
2023-04-17T16:34:26.258Z,44.45
2023-04-17T16:36:52.850Z,44.33
2023-04-17T16:39:19.400Z,44.15
2023-04-17T16:41:46.046Z,44.47
2023-04-17T16:44:12.991Z,44.35
2023-04-17T16:47:03.041Z,44.11
2023-04-17T16:49:26.202Z,44.54
2023-04-17T16:51:52.967Z,44.42
2023-04-17T16:54:21.525Z,44.01
2023-04-17T16:56:48.600Z,44.12
2023-04-17T16:59:15.821Z,44.36
2023-04-17T17:01:42.397Z,44.71
2023-04-17T17:04:09.176Z,44.49
2023-04-17T17:06:35.794Z,44.38
2023-04-17T17:09:02.419Z,44.53
2023-04-17T17:11:29.087Z,44.41
2023-04-17T17:13:56.314Z,44.44
2023-04-17T17:16:22.897Z,44.81
2023-04-17T17:18:49.506Z,44.88
2023-04-17T17:21:16.043Z,44.50
2023-04-17T17:23:42.858Z,44.80
2023-04-17T17:26:09.398Z,44.72
2023-04-17T17:28:36.759Z,44.57
2023-04-17T17:31:06.152Z,44.47
2023-04-17T17:33:32.932Z,44.34
2023-04-17T17:35:59.798Z,44.51
2023-04-17T17:38:28.623Z,44.46
2023-04-17T17:40:58.170Z,44.54
2023-04-17T17:43:24.949Z,44.54
2023-04-17T17:45:52.560Z,44.85
2023-04-17T17:48:20.481Z,44.68
2023-04-17T17:50:47.558Z,44.96
2023-04-17T17:53:16.191Z,44.97
2023-04-17T17:55:42.749Z,44.73
2023-04-17T17:58:09.411Z,44.93
2023-04-17T18:00:36.016Z,44.82
2023-04-17T18:03:02.720Z,45.01
2023-04-17T18:05:29.313Z,45.06
2023-04-17T18:07:55.828Z,45.30
2023-04-17T18:10:22.620Z,45.71
2023-04-17T18:12:49.818Z,46.07
2023-04-17T18:15:16.611Z,46.70
2023-04-17T18:17:43.206Z,46.84
2023-04-17T18:20:10.459Z,47.02
2023-04-17T18:22:38.370Z,46.55
2023-04-17T18:25:08.212Z,46.76
2023-04-17T18:27:37.606Z,46.71
2023-04-17T18:30:08.505Z,46.70
2023-04-17T18:32:35.990Z,46.75
2023-04-17T18:35:02.882Z,46.73
2023-04-17T18:37:29.668Z,46.11
2023-04-17T18:39:56.193Z,46.59
2023-04-17T18:42:22.913Z,46.90
2023-04-17T18:44:49.955Z,46.88
2023-04-17T18:47:16.807Z,46.46
2023-04-17T18:49:43.369Z,47.18
2023-04-17T18:52:09.959Z,46.45
2023-04-17T18:54:36.498Z,47.10
2023-04-17T18:57:03.064Z,46.59
2023-04-17T18:59:30.246Z,46.82
2023-04-17T19:01:56.945Z,46.71
2023-04-17T19:04:23.661Z,46.88
2023-04-17T19:06:50.280Z,47.27
2023-04-17T19:09:16.888Z,47.27
2023-04-17T19:11:43.509Z,46.91
2023-04-17T19:14:10.068Z,46.64
2023-04-17T19:16:37.004Z,47.46
2023-04-17T19:19:05.446Z,47.04
2023-04-17T19:21:32.829Z,47.34
2023-04-17T19:23:59.369Z,46.78
2023-04-17T19:26:25.933Z,47.36
2023-04-17T19:28:52.471Z,47.19
2023-04-17T19:31:19.043Z,46.75
2023-04-17T19:33:45.725Z,47.67
2023-04-17T19:36:12.307Z,47.34
2023-04-17T19:38:38.858Z,47.14
2023-04-17T19:41:19.978Z,47.28
2023-04-17T19:43:49.750Z,47.56
2023-04-17T19:46:17.256Z,47.42
2023-04-17T19:48:45.341Z,47.44
2023-04-17T19:51:12.957Z,47.85
2023-04-17T19:53:40.827Z,46.99
2023-04-17T19:56:08.757Z,47.21
2023-04-17T19:58:36.418Z,47.43
2023-04-17T20:01:03.220Z,47.49
2023-04-17T20:03:30.923Z,47.85
2023-04-17T20:05:58.315Z,47.36
2023-04-17T20:08:25.546Z,47.80
2023-04-17T20:10:52.267Z,47.25
2023-04-17T20:13:18.836Z,47.78
2023-04-17T20:15:45.385Z,47.66
2023-04-17T20:18:12.166Z,47.81
2023-04-17T20:20:39.372Z,47.35
2023-04-17T20:23:06.261Z,47.85
2023-04-17T20:25:32.852Z,47.65
2023-04-17T20:27:59.399Z,47.69
2023-04-17T20:30:25.983Z,47.91
2023-04-17T20:32:52.633Z,47.39
2023-04-17T20:35:23.586Z,47.58
2023-04-17T20:37:51.650Z,47.37
2023-04-17T20:40:19.077Z,47.20
2023-04-17T20:42:46.332Z,47.67
2023-04-17T20:45:13.246Z,47.58
2023-04-17T20:47:52.870Z,47.59
2023-04-17T20:50:22.988Z,48.02
2023-04-17T20:52:49.615Z,47.60
2023-04-17T20:55:18.684Z,47.94
2023-04-17T20:57:45.935Z,47.88
2023-04-17T21:00:12.779Z,47.80
2023-04-17T21:02:39.522Z,47.99
2023-04-17T21:05:07.451Z,47.58
2023-04-17T21:07:34.369Z,47.77
2023-04-17T21:10:01.141Z,47.79
2023-04-17T21:12:28.234Z,47.24
2023-04-17T21:14:54.846Z,47.52
2023-04-17T21:17:21.395Z,47.41
2023-04-17T21:19:48.033Z,47.89
2023-04-17T21:22:14.543Z,47.52
2023-04-17T21:24:41.147Z,47.67
2023-04-17T21:27:07.736Z,48.00
2023-04-17T21:29:34.272Z,47.76
2023-04-17T21:32:00.807Z,47.54
2023-04-17T21:34:27.426Z,47.98
2023-04-17T21:36:54.453Z,47.73
2023-04-17T21:39:21.774Z,48.09
2023-04-17T21:41:48.368Z,47.80
2023-04-17T21:44:15.455Z,47.35
2023-04-17T21:46:45.200Z,47.94
2023-04-17T21:49:12.406Z,47.64
2023-04-17T21:51:39.181Z,48.14
2023-04-17T21:54:05.759Z,48.00
2023-04-17T21:56:32.316Z,47.94
2023-04-17T21:58:58.869Z,47.56
2023-04-17T22:01:25.457Z,47.50
2023-04-17T22:03:52.049Z,47.54
2023-04-17T22:06:18.715Z,47.83
2023-04-17T22:08:45.490Z,47.84
2023-04-17T22:11:12.127Z,47.74
2023-04-17T22:13:38.711Z,47.87
2023-04-17T22:16:06.706Z,48.06
2023-04-17T22:18:33.268Z,48.08
2023-04-17T22:20:59.780Z,47.93
2023-04-17T22:23:45.135Z,48.17
2023-04-17T22:26:11.772Z,47.84
2023-04-17T22:28:38.308Z,48.39
2023-04-17T22:31:42.322Z,48.13
2023-04-17T22:34:46.215Z,48.20
2023-04-17T22:37:31.271Z,48.11
2023-04-17T22:40:35.580Z,48.05
2023-04-17T22:43:39.494Z,48.12
2023-04-17T22:46:06.127Z,48.35
2023-04-17T22:48:32.723Z,48.25
2023-04-17T22:50:59.254Z,47.98
2023-04-17T22:53:26.142Z,48.20
2023-04-17T22:56:13.051Z,48.05
2023-04-17T22:58:41.821Z,47.96
2023-04-17T23:01:08.414Z,48.02
2023-04-17T23:03:35.282Z,48.23
2023-04-17T23:06:01.899Z,48.12
2023-04-17T23:08:30.247Z,48.55
2023-04-17T23:10:59.617Z,48.07
2023-04-17T23:13:30.545Z,48.27
2023-04-17T23:15:57.253Z,48.21
2023-04-17T23:18:23.876Z,47.81
2023-04-17T23:20:50.417Z,48.14
2023-04-17T23:23:18.423Z,48.04
2023-04-17T23:25:45.173Z,48.32
2023-04-17T23:28:11.784Z,48.12
2023-04-17T23:30:38.300Z,48.44
2023-04-17T23:33:04.868Z,47.84
2023-04-17T23:35:31.431Z,48.56
2023-04-17T23:37:57.991Z,48.37
2023-04-17T23:40:25.706Z,48.60
2023-04-17T23:42:52.994Z,48.08
2023-04-17T23:45:19.673Z,48.55
2023-04-17T23:47:46.443Z,48.13
2023-04-17T23:50:13.074Z,48.21
2023-04-17T23:52:39.596Z,48.20
2023-04-17T23:55:06.650Z,48.44
2023-04-17T23:57:35.456Z,48.23
